sensor_id;sensor_type;location;lat;lon;timestamp;pressure;altitude;pressure_sealevel;temperature;humidity
31585;BME280;18191;51.288;12.390;2023-04-10T00:01:02;48945.19;;;-144.47;81.05
31585;BME280;18191;51.288;12.390;2023-04-10T00:05:53;49004.84;;;-144.47;80.91
31585;BME280;18191;51.288;12.390;2023-04-10T00:10:43;48973.03;;;-144.47;81.40
31585;BME280;18191;51.288;12.390;2023-04-10T00:15:33;48996.91;;;-144.47;81.65
31585;BME280;18191;51.288;12.390;2023-04-10T00:20:24;49022.75;;;-144.47;81.22
31585;BME280;18191;51.288;12.390;2023-04-10T00:25:15;48986.97;;;-144.47;81.46
31585;BME280;18191;51.288;12.390;2023-04-10T00:30:05;48981.00;;;-144.47;81.95
31585;BME280;18191;51.288;12.390;2023-04-10T00:34:56;48988.94;;;-144.47;81.58
31585;BME280;18191;51.288;12.390;2023-04-10T00:39:46;49012.81;;;-144.47;81.84
31585;BME280;18191;51.288;12.390;2023-04-10T00:44:36;48982.97;;;-144.47;81.93
31585;BME280;18191;51.288;12.390;2023-04-10T00:49:27;49014.81;;;-144.47;82.40
31585;BME280;18191;51.288;12.390;2023-04-10T00:54:17;49010.81;;;-144.47;81.98
31585;BME280;18191;51.288;12.390;2023-04-10T00:59:08;48988.94;;;-144.47;82.69
31585;BME280;18191;51.288;12.390;2023-04-10T01:03:58;48990.94;;;-144.47;82.28
31585;BME280;18191;51.288;12.390;2023-04-10T01:14:01;49008.84;;;-144.47;82.21
31585;BME280;18191;51.288;12.390;2023-04-10T01:18:55;48988.94;;;-144.47;82.47
31585;BME280;18191;51.288;12.390;2023-04-10T01:33:32;48996.91;;;-144.47;83.10
31585;BME280;18191;51.288;12.390;2023-04-10T01:38:23;49052.59;;;-144.47;83.01
31585;BME280;18191;51.288;12.390;2023-04-10T01:43:15;48992.94;;;-144.47;83.32
31585;BME280;18191;51.288;12.390;2023-04-10T01:48:06;49028.72;;;-144.47;83.59
31585;BME280;18191;51.288;12.390;2023-04-10T01:52:56;48963.09;;;-144.47;83.99
31585;BME280;18191;51.288;12.390;2023-04-10T01:57:48;48965.06;;;-144.47;83.29
31585;BME280;18191;51.288;12.390;2023-04-10T02:02:38;48996.91;;;-144.47;83.38
31585;BME280;18191;51.288;12.390;2023-04-10T02:07:30;48981.00;;;-144.47;82.92
31585;BME280;18191;51.288;12.390;2023-04-10T02:12:28;49008.84;;;-144.47;83.87
31585;BME280;18191;51.288;12.390;2023-04-10T02:17:19;48977.00;;;-144.47;83.72
31585;BME280;18191;51.288;12.390;2023-04-10T02:22:12;49012.81;;;-144.47;83.79
31585;BME280;18191;51.288;12.390;2023-04-10T02:27:02;48992.94;;;-144.47;83.70
31585;BME280;18191;51.288;12.390;2023-04-10T02:31:53;48981.00;;;-144.47;83.58
31585;BME280;18191;51.288;12.390;2023-04-10T02:36:43;48977.00;;;-144.47;84.04
31585;BME280;18191;51.288;12.390;2023-04-10T02:41:33;48988.94;;;-144.47;83.64
31585;BME280;18191;51.288;12.390;2023-04-10T02:46:23;49024.75;;;-144.47;83.67
31585;BME280;18191;51.288;12.390;2023-04-10T02:51:13;48951.16;;;-144.47;83.73
31585;BME280;18191;51.288;12.390;2023-04-10T02:56:04;48984.97;;;-144.47;84.37
31585;BME280;18191;51.288;12.390;2023-04-10T03:00:55;48988.94;;;-144.47;84.67
31585;BME280;18191;51.288;12.390;2023-04-10T03:05:46;48996.91;;;-144.47;84.80
31585;BME280;18191;51.288;12.390;2023-04-10T03:10:38;48961.09;;;-144.47;84.90
31585;BME280;18191;51.288;12.390;2023-04-10T03:15:28;49012.81;;;-144.47;85.77
31585;BME280;18191;51.288;12.390;2023-04-10T03:20:18;48984.97;;;-144.47;85.71
31585;BME280;18191;51.288;12.390;2023-04-10T03:25:08;48959.09;;;-144.47;85.49
31585;BME280;18191;51.288;12.390;2023-04-10T03:29:59;48986.97;;;-144.47;85.49
31585;BME280;18191;51.288;12.390;2023-04-10T03:34:50;48996.91;;;-144.47;86.89
31585;BME280;18191;51.288;12.390;2023-04-10T03:39:40;48977.00;;;-144.47;87.02
31585;BME280;18191;51.288;12.390;2023-04-10T03:44:30;49016.78;;;-144.47;86.50
31585;BME280;18191;51.288;12.390;2023-04-10T03:49:21;48957.13;;;-144.47;86.32
31585;BME280;18191;51.288;12.390;2023-04-10T03:54:11;49016.78;;;-144.47;86.21
31585;BME280;18191;51.288;12.390;2023-04-10T03:59:01;48984.97;;;-144.47;86.08
31585;BME280;18191;51.288;12.390;2023-04-10T04:03:51;48965.06;;;-144.47;86.54
31585;BME280;18191;51.288;12.390;2023-04-10T04:08:41;49000.88;;;-144.47;86.99
31585;BME280;18191;51.288;12.390;2023-04-10T04:13:32;48949.16;;;-144.47;86.82
31585;BME280;18191;51.288;12.390;2023-04-10T04:18:22;48992.94;;;-144.47;86.61
31585;BME280;18191;51.288;12.390;2023-04-10T04:23:12;48984.97;;;-144.47;87.08
31585;BME280;18191;51.288;12.390;2023-04-10T04:28:02;48969.06;;;-144.47;86.53
31585;BME280;18191;51.288;12.390;2023-04-10T04:32:52;48988.94;;;-144.47;86.27
31585;BME280;18191;51.288;12.390;2023-04-10T04:37:43;48979.00;;;-144.47;86.96
31585;BME280;18191;51.288;12.390;2023-04-10T04:42:33;48988.94;;;-144.47;87.14
31585;BME280;18191;51.288;12.390;2023-04-10T04:47:23;49004.84;;;-144.47;87.45
31585;BME280;18191;51.288;12.390;2023-04-10T04:52:13;49036.69;;;-144.47;86.52
31585;BME280;18191;51.288;12.390;2023-04-10T04:57:03;48981.00;;;-144.47;86.57
31585;BME280;18191;51.288;12.390;2023-04-10T05:01:53;48965.06;;;-144.47;86.08
31585;BME280;18191;51.288;12.390;2023-04-10T05:06:44;48965.06;;;-144.47;85.98
31585;BME280;18191;51.288;12.390;2023-04-10T05:11:34;49010.81;;;-144.47;86.08
31585;BME280;18191;51.288;12.390;2023-04-10T05:16:25;48984.97;;;-144.47;85.06
31585;BME280;18191;51.288;12.390;2023-04-10T05:21:16;48992.94;;;-144.47;85.42
31585;BME280;18191;51.288;12.390;2023-04-10T05:26:06;48973.03;;;-144.47;85.17
31585;BME280;18191;51.288;12.390;2023-04-10T05:30:56;49000.88;;;-144.47;85.60
31585;BME280;18191;51.288;12.390;2023-04-10T05:35:46;49008.84;;;-144.47;85.75
31585;BME280;18191;51.288;12.390;2023-04-10T05:40:37;48986.97;;;-144.47;85.82
31585;BME280;18191;51.288;12.390;2023-04-10T05:45:27;48992.94;;;-144.47;72.52
31585;BME280;18191;51.288;12.390;2023-04-10T05:50:17;48953.13;;;-144.47;66.18
31585;BME280;18191;51.288;12.390;2023-04-10T05:55:08;48969.06;;;-144.47;72.48
31585;BME280;18191;51.288;12.390;2023-04-10T05:59:58;49002.88;;;-144.47;75.81
31585;BME280;18191;51.288;12.390;2023-04-10T06:04:48;48988.94;;;-144.47;76.66
31585;BME280;18191;51.288;12.390;2023-04-10T06:09:39;48973.03;;;-144.47;77.40
31585;BME280;18191;51.288;12.390;2023-04-10T06:14:29;48984.97;;;-144.47;77.06
31585;BME280;18191;51.288;12.390;2023-04-10T06:19:19;48961.09;;;-144.47;75.70
31585;BME280;18191;51.288;12.390;2023-04-10T06:24:10;48935.25;;;-144.47;75.47
31585;BME280;18191;51.288;12.390;2023-04-10T06:29:00;48973.03;;;-144.47;75.36
31585;BME280;18191;51.288;12.390;2023-04-10T06:33:50;48961.09;;;-144.47;76.23
31585;BME280;18191;51.288;12.390;2023-04-10T06:38:41;48957.13;;;-144.47;75.90
31585;BME280;18191;51.288;12.390;2023-04-10T06:43:34;48981.00;;;-144.47;74.32
31585;BME280;18191;51.288;12.390;2023-04-10T06:48:25;48984.97;;;-144.47;74.52
31585;BME280;18191;51.288;12.390;2023-04-10T06:53:15;48959.09;;;-144.47;75.26
31585;BME280;18191;51.288;12.390;2023-04-10T06:58:05;48996.91;;;-144.47;74.78
31585;BME280;18191;51.288;12.390;2023-04-10T07:02:55;48984.97;;;-144.47;73.21
31585;BME280;18191;51.288;12.390;2023-04-10T07:07:45;48949.16;;;-144.47;72.31
31585;BME280;18191;51.288;12.390;2023-04-10T07:12:36;48947.16;;;-144.47;71.41
31585;BME280;18191;51.288;12.390;2023-04-10T07:17:26;49002.88;;;-144.47;70.26
31585;BME280;18191;51.288;12.390;2023-04-10T07:22:17;48996.91;;;-144.47;71.10
31585;BME280;18191;51.288;12.390;2023-04-10T07:27:07;48961.09;;;-144.47;71.23
31585;BME280;18191;51.288;12.390;2023-04-10T07:31:57;48981.00;;;-144.47;68.55
31585;BME280;18191;51.288;12.390;2023-04-10T07:36:47;48965.06;;;-144.47;67.66
31585;BME280;18191;51.288;12.390;2023-04-10T07:41:37;48986.97;;;-144.47;66.99
31585;BME280;18191;51.288;12.390;2023-04-10T07:46:28;48981.00;;;-144.47;66.23
31585;BME280;18191;51.288;12.390;2023-04-10T07:51:18;48945.19;;;-144.47;65.82
31585;BME280;18191;51.288;12.390;2023-04-10T07:56:13;48992.94;;;-144.47;65.22
31585;BME280;18191;51.288;12.390;2023-04-10T08:01:04;48961.09;;;-144.47;62.95
31585;BME280;18191;51.288;12.390;2023-04-10T08:05:54;48937.22;;;-144.47;62.76
31585;BME280;18191;51.288;12.390;2023-04-10T08:10:45;48969.06;;;-144.47;62.84
31585;BME280;18191;51.288;12.390;2023-04-10T08:15:35;48981.00;;;-144.47;62.14
31585;BME280;18191;51.288;12.390;2023-04-10T08:20:26;48933.25;;;-144.47;61.35
31585;BME280;18191;51.288;12.390;2023-04-10T08:25:16;48963.09;;;-144.47;60.02
31585;BME280;18191;51.288;12.390;2023-04-10T08:30:06;48949.16;;;-144.47;58.68
31585;BME280;18191;51.288;12.390;2023-04-10T08:34:57;48984.97;;;-144.47;59.22
31585;BME280;18191;51.288;12.390;2023-04-10T08:39:47;48929.28;;;-144.47;56.63
31585;BME280;18191;51.288;12.390;2023-04-10T08:44:37;48945.19;;;-144.47;55.65
31585;BME280;18191;51.288;12.390;2023-04-10T08:49:31;48929.28;;;-144.47;56.42
31585;BME280;18191;51.288;12.390;2023-04-10T08:54:28;48969.06;;;-144.47;53.26
31585;BME280;18191;51.288;12.390;2023-04-10T08:59:18;48941.19;;;-144.47;52.71
31585;BME280;18191;51.288;12.390;2023-04-10T09:04:10;48913.34;;;-144.47;51.55
31585;BME280;18191;51.288;12.390;2023-04-10T09:09:00;48903.41;;;-144.47;51.49
31585;BME280;18191;51.288;12.390;2023-04-10T09:13:50;48973.03;;;-144.47;49.58
31585;BME280;18191;51.288;12.390;2023-04-10T09:18:41;48935.25;;;-144.47;49.26
31585;BME280;18191;51.288;12.390;2023-04-10T09:23:32;48923.31;;;-144.47;46.71
31585;BME280;18191;51.288;12.390;2023-04-10T09:28:22;48957.13;;;-144.47;43.26
31585;BME280;18191;51.288;12.390;2023-04-10T09:33:22;48925.28;;;-144.47;43.22
31585;BME280;18191;51.288;12.390;2023-04-10T09:38:13;48897.44;;;-144.47;43.28
31585;BME280;18191;51.288;12.390;2023-04-10T09:43:15;48931.25;;;-144.47;41.48
31585;BME280;18191;51.288;12.390;2023-04-10T09:48:06;48913.34;;;-144.47;40.31
31585;BME280;18191;51.288;12.390;2023-04-10T09:52:56;48945.19;;;-144.47;42.37
31585;BME280;18191;51.288;12.390;2023-04-10T09:57:46;48905.41;;;-144.47;40.65
31585;BME280;18191;51.288;12.390;2023-04-10T10:02:36;48909.38;;;-144.47;41.41
31585;BME280;18191;51.288;12.390;2023-04-10T10:07:31;48937.22;;;-144.47;38.70
31585;BME280;18191;51.288;12.390;2023-04-10T10:12:21;48929.28;;;-144.47;40.47
31585;BME280;18191;51.288;12.390;2023-04-10T10:17:13;48945.19;;;-144.47;38.09
31585;BME280;18191;51.288;12.390;2023-04-10T10:22:04;48913.34;;;-144.47;40.91
31585;BME280;18191;51.288;12.390;2023-04-10T10:26:55;48961.09;;;-144.47;40.41
31585;BME280;18191;51.288;12.390;2023-04-10T10:31:46;48945.19;;;-144.47;37.62
31585;BME280;18191;51.288;12.390;2023-04-10T10:36:38;48953.13;;;-144.47;37.52
31585;BME280;18191;51.288;12.390;2023-04-10T10:41:35;48975.03;;;-144.47;39.24
31585;BME280;18191;51.288;12.390;2023-04-10T10:46:34;48953.13;;;-144.47;38.38
31585;BME280;18191;51.288;12.390;2023-04-10T10:51:42;48949.16;;;-144.47;37.38
31585;BME280;18191;51.288;12.390;2023-04-10T10:56:33;48901.41;;;-144.47;37.66
31585;BME280;18191;51.288;12.390;2023-04-10T11:01:24;48949.16;;;-144.47;38.34
31585;BME280;18191;51.288;12.390;2023-04-10T11:06:15;48953.13;;;-144.47;37.94
31585;BME280;18191;51.288;12.390;2023-04-10T11:11:09;48945.19;;;-144.47;37.51
31585;BME280;18191;51.288;12.390;2023-04-10T11:16:01;48949.16;;;-144.47;37.02
31585;BME280;18191;51.288;12.390;2023-04-10T11:21:07;48965.06;;;-144.47;37.66
31585;BME280;18191;51.288;12.390;2023-04-10T11:25:59;48961.09;;;-144.47;36.27
31585;BME280;18191;51.288;12.390;2023-04-10T11:30:49;48969.06;;;-144.47;37.71
31585;BME280;18191;51.288;12.390;2023-04-10T11:35:39;48945.19;;;-144.47;37.33
31585;BME280;18191;51.288;12.390;2023-04-10T11:40:30;48949.16;;;-144.47;37.28
31585;BME280;18191;51.288;12.390;2023-04-10T11:45:24;48957.13;;;-144.47;37.69
31585;BME280;18191;51.288;12.390;2023-04-10T11:50:14;48941.19;;;-144.47;37.20
31585;BME280;18191;51.288;12.390;2023-04-10T11:55:07;48961.09;;;-144.47;37.67
31585;BME280;18191;51.288;12.390;2023-04-10T11:59:57;48925.28;;;-144.47;36.84
31585;BME280;18191;51.288;12.390;2023-04-10T12:04:56;48945.19;;;-144.47;37.12
31585;BME280;18191;51.288;12.390;2023-04-10T12:09:54;48945.19;;;-144.47;36.70
31585;BME280;18191;51.288;12.390;2023-04-10T12:14:44;48933.25;;;-144.47;38.09
31585;BME280;18191;51.288;12.390;2023-04-10T12:19:36;48931.25;;;-144.47;36.58
31585;BME280;18191;51.288;12.390;2023-04-10T12:24:39;48933.25;;;-144.47;36.62
31585;BME280;18191;51.288;12.390;2023-04-10T12:29:31;48941.19;;;-144.47;35.35
31585;BME280;18191;51.288;12.390;2023-04-10T12:34:21;48933.25;;;-144.47;34.62
31585;BME280;18191;51.288;12.390;2023-04-10T12:39:20;48953.13;;;-144.47;36.11
31585;BME280;18191;51.288;12.390;2023-04-10T12:44:11;48941.19;;;-144.47;35.17
31585;BME280;18191;51.288;12.390;2023-04-10T12:49:15;48929.28;;;-144.47;34.38
31585;BME280;18191;51.288;12.390;2023-04-10T12:54:05;48907.38;;;-144.47;35.72
31585;BME280;18191;51.288;12.390;2023-04-10T12:59:05;48965.06;;;-144.47;33.80
31585;BME280;18191;51.288;12.390;2023-04-10T13:03:56;48953.13;;;-144.47;34.71
31585;BME280;18191;51.288;12.390;2023-04-10T13:08:47;48925.28;;;-144.47;34.07
31585;BME280;18191;51.288;12.390;2023-04-10T13:13:37;48933.25;;;-144.47;33.48
31585;BME280;18191;51.288;12.390;2023-04-10T13:18:27;48947.16;;;-144.47;32.83
31585;BME280;18191;51.288;12.390;2023-04-10T13:23:18;48977.00;;;-144.47;33.20
31585;BME280;18191;51.288;12.390;2023-04-10T13:28:08;48992.94;;;-144.47;32.20
31585;BME280;18191;51.288;12.390;2023-04-10T13:33:01;48981.00;;;-144.47;32.33
31585;BME280;18191;51.288;12.390;2023-04-10T13:37:52;48925.28;;;-144.47;32.32
31585;BME280;18191;51.288;12.390;2023-04-10T13:42:43;48957.13;;;-144.47;31.12
31585;BME280;18191;51.288;12.390;2023-04-10T13:47:33;48977.00;;;-144.47;32.56
31585;BME280;18191;51.288;12.390;2023-04-10T13:52:23;48953.13;;;-144.47;31.69
31585;BME280;18191;51.288;12.390;2023-04-10T13:57:13;48933.25;;;-144.47;32.17
31585;BME280;18191;51.288;12.390;2023-04-10T14:02:03;48943.19;;;-144.47;32.10
31585;BME280;18191;51.288;12.390;2023-04-10T14:06:54;48935.25;;;-144.47;30.83
31585;BME280;18191;51.288;12.390;2023-04-10T14:11:47;48933.25;;;-144.47;31.83
31585;BME280;18191;51.288;12.390;2023-04-10T14:16:37;48921.31;;;-144.47;31.05
31585;BME280;18191;51.288;12.390;2023-04-10T14:21:27;48941.19;;;-144.47;31.25
31585;BME280;18191;51.288;12.390;2023-04-10T14:26:18;48951.16;;;-144.47;31.71
31585;BME280;18191;51.288;12.390;2023-04-10T14:31:08;48981.00;;;-144.47;29.82
31585;BME280;18191;51.288;12.390;2023-04-10T14:35:58;48937.22;;;-144.47;30.36
31585;BME280;18191;51.288;12.390;2023-04-10T14:40:48;48913.34;;;-144.47;30.66
31585;BME280;18191;51.288;12.390;2023-04-10T14:45:39;48957.13;;;-144.47;31.06
31585;BME280;18191;51.288;12.390;2023-04-10T14:50:30;48945.19;;;-144.47;30.84
31585;BME280;18191;51.288;12.390;2023-04-10T14:55:20;48913.34;;;-144.47;29.77
31585;BME280;18191;51.288;12.390;2023-04-10T15:00:11;48971.03;;;-144.47;30.91
31585;BME280;18191;51.288;12.390;2023-04-10T15:05:01;48945.19;;;-144.47;31.06
31585;BME280;18191;51.288;12.390;2023-04-10T15:09:54;48937.22;;;-144.47;30.53
31585;BME280;18191;51.288;12.390;2023-04-10T15:14:45;48935.25;;;-144.47;31.38
31585;BME280;18191;51.288;12.390;2023-04-10T15:19:35;48935.25;;;-144.47;30.55
31585;BME280;18191;51.288;12.390;2023-04-10T15:24:25;48949.16;;;-144.47;30.59
31585;BME280;18191;51.288;12.390;2023-04-10T15:29:15;48988.94;;;-144.47;31.05
31585;BME280;18191;51.288;12.390;2023-04-10T15:34:05;48925.28;;;-144.47;29.84
31585;BME280;18191;51.288;12.390;2023-04-10T15:38:56;48984.97;;;-144.47;30.28
31585;BME280;18191;51.288;12.390;2023-04-10T15:43:47;48961.09;;;-144.47;29.92
31585;BME280;18191;51.288;12.390;2023-04-10T15:48:37;48955.13;;;-144.47;30.03
31585;BME280;18191;51.288;12.390;2023-04-10T15:53:28;48909.38;;;-144.47;30.55
31585;BME280;18191;51.288;12.390;2023-04-10T15:58:18;48961.09;;;-144.47;29.85
31585;BME280;18191;51.288;12.390;2023-04-10T16:03:08;48945.19;;;-144.47;31.14
31585;BME280;18191;51.288;12.390;2023-04-10T16:07:58;48897.44;;;-144.47;32.02
31585;BME280;18191;51.288;12.390;2023-04-10T16:12:48;48921.31;;;-144.47;32.29
31585;BME280;18191;51.288;12.390;2023-04-10T16:17:38;48949.16;;;-144.47;32.54
31585;BME280;18191;51.288;12.390;2023-04-10T16:22:29;48965.06;;;-144.47;31.98
31585;BME280;18191;51.288;12.390;2023-04-10T16:27:19;48959.09;;;-144.47;32.91
31585;BME280;18191;51.288;12.390;2023-04-10T16:32:09;48915.34;;;-144.47;34.09
31585;BME280;18191;51.288;12.390;2023-04-10T16:37:00;48949.16;;;-144.47;33.81
31585;BME280;18191;51.288;12.390;2023-04-10T16:41:50;48957.13;;;-144.47;34.37
31585;BME280;18191;51.288;12.390;2023-04-10T16:46:40;48959.09;;;-144.47;34.53
31585;BME280;18191;51.288;12.390;2023-04-10T16:51:30;48967.06;;;-144.47;33.71
31585;BME280;18191;51.288;12.390;2023-04-10T16:56:20;48939.22;;;-144.47;34.21
31585;BME280;18191;51.288;12.390;2023-04-10T17:01:18;48925.28;;;-144.47;34.89
31585;BME280;18191;51.288;12.390;2023-04-10T17:06:08;48929.28;;;-144.47;34.96
31585;BME280;18191;51.288;12.390;2023-04-10T17:10:58;48927.28;;;-144.47;35.41
31585;BME280;18191;51.288;12.390;2023-04-10T17:15:49;48935.25;;;-144.47;35.40
31585;BME280;18191;51.288;12.390;2023-04-10T17:20:39;48925.28;;;-144.47;35.43
31585;BME280;18191;51.288;12.390;2023-04-10T17:25:29;48925.28;;;-144.47;36.09
31585;BME280;18191;51.288;12.390;2023-04-10T17:30:19;48945.19;;;-144.47;35.65
31585;BME280;18191;51.288;12.390;2023-04-10T17:35:10;48923.31;;;-144.47;36.41
31585;BME280;18191;51.288;12.390;2023-04-10T17:40:00;48965.06;;;-144.47;36.65
31585;BME280;18191;51.288;12.390;2023-04-10T17:44:50;48945.19;;;-144.47;36.52
31585;BME280;18191;51.288;12.390;2023-04-10T17:49:40;48921.31;;;-144.47;37.50
31585;BME280;18191;51.288;12.390;2023-04-10T17:54:30;48933.25;;;-144.47;36.99
31585;BME280;18191;51.288;12.390;2023-04-10T17:59:21;48957.13;;;-144.47;38.04
31585;BME280;18191;51.288;12.390;2023-04-10T18:04:11;48949.16;;;-144.47;37.06
31585;BME280;18191;51.288;12.390;2023-04-10T18:09:01;48953.13;;;-144.47;37.68
31585;BME280;18191;51.288;12.390;2023-04-10T18:13:51;48945.19;;;-144.47;39.82
31585;BME280;18191;51.288;12.390;2023-04-10T18:18:41;48925.28;;;-144.47;39.66
31585;BME280;18191;51.288;12.390;2023-04-10T18:23:32;48955.13;;;-144.47;40.24
31585;BME280;18191;51.288;12.390;2023-04-10T18:28:23;48953.13;;;-144.47;40.02
31585;BME280;18191;51.288;12.390;2023-04-10T18:33:13;48937.22;;;-144.47;41.48
31585;BME280;18191;51.288;12.390;2023-04-10T18:38:09;48935.25;;;-144.47;41.77
31585;BME280;18191;51.288;12.390;2023-04-10T18:42:59;48941.19;;;-144.47;41.47
31585;BME280;18191;51.288;12.390;2023-04-10T18:47:49;48937.22;;;-144.47;41.39
31585;BME280;18191;51.288;12.390;2023-04-10T18:52:40;48913.34;;;-144.47;42.48
31585;BME280;18191;51.288;12.390;2023-04-10T18:57:30;48953.13;;;-144.47;41.75
31585;BME280;18191;51.288;12.390;2023-04-10T19:02:20;48899.44;;;-144.47;43.20
31585;BME280;18191;51.288;12.390;2023-04-10T19:07:10;48957.13;;;-144.47;43.71
31585;BME280;18191;51.288;12.390;2023-04-10T19:12:00;48931.25;;;-144.47;44.26
31585;BME280;18191;51.288;12.390;2023-04-10T19:16:51;48961.09;;;-144.47;43.44
31585;BME280;18191;51.288;12.390;2023-04-10T19:21:41;48917.34;;;-144.47;44.88
31585;BME280;18191;51.288;12.390;2023-04-10T19:26:31;48969.06;;;-144.47;46.38
31585;BME280;18191;51.288;12.390;2023-04-10T19:31:24;48953.13;;;-144.47;44.87
31585;BME280;18191;51.288;12.390;2023-04-10T19:36:17;48933.25;;;-144.47;46.87
31585;BME280;18191;51.288;12.390;2023-04-10T19:41:12;48949.16;;;-144.47;47.80
31585;BME280;18191;51.288;12.390;2023-04-10T19:46:02;48945.19;;;-144.47;48.21
31585;BME280;18191;51.288;12.390;2023-04-10T19:50:52;48961.09;;;-144.47;47.22
31585;BME280;18191;51.288;12.390;2023-04-10T19:55:45;48917.34;;;-144.47;47.12
31585;BME280;18191;51.288;12.390;2023-04-10T20:00:35;48984.97;;;-144.47;47.89
31585;BME280;18191;51.288;12.390;2023-04-10T20:05:25;48955.13;;;-144.47;47.73
31585;BME280;18191;51.288;12.390;2023-04-10T20:10:15;48953.13;;;-144.47;48.61
31585;BME280;18191;51.288;12.390;2023-04-10T20:15:06;48953.13;;;-144.47;49.37
31585;BME280;18191;51.288;12.390;2023-04-10T20:19:56;48945.19;;;-144.47;49.65
31585;BME280;18191;51.288;12.390;2023-04-10T20:24:46;49024.75;;;-144.47;49.32
31585;BME280;18191;51.288;12.390;2023-04-10T20:29:37;48975.03;;;-144.47;48.93
31585;BME280;18191;51.288;12.390;2023-04-10T20:34:27;48971.03;;;-144.47;49.38
31585;BME280;18191;51.288;12.390;2023-04-10T20:39:17;48969.06;;;-144.47;49.60
31585;BME280;18191;51.288;12.390;2023-04-10T20:44:07;49000.88;;;-144.47;49.40
31585;BME280;18191;51.288;12.390;2023-04-10T20:48:57;48931.25;;;-144.47;50.18
31585;BME280;18191;51.288;12.390;2023-04-10T20:53:48;48943.19;;;-144.47;50.06
31585;BME280;18191;51.288;12.390;2023-04-10T20:58:38;48929.28;;;-144.47;49.85
31585;BME280;18191;51.288;12.390;2023-04-10T21:03:28;48941.19;;;-144.47;48.94
31585;BME280;18191;51.288;12.390;2023-04-10T21:08:18;48957.13;;;-144.47;50.80
31585;BME280;18191;51.288;12.390;2023-04-10T21:13:10;48945.19;;;-144.47;51.42
31585;BME280;18191;51.288;12.390;2023-04-10T21:18:00;48961.09;;;-144.47;50.63
31585;BME280;18191;51.288;12.390;2023-04-10T21:22:50;48957.13;;;-144.47;50.65
31585;BME280;18191;51.288;12.390;2023-04-10T21:27:40;48965.06;;;-144.47;51.32
31585;BME280;18191;51.288;12.390;2023-04-10T21:32:30;48941.19;;;-144.47;52.25
31585;BME280;18191;51.288;12.390;2023-04-10T21:37:21;48957.13;;;-144.47;52.99
31585;BME280;18191;51.288;12.390;2023-04-10T21:42:11;48941.19;;;-144.47;52.52
31585;BME280;18191;51.288;12.390;2023-04-10T21:47:01;48963.09;;;-144.47;53.09
31585;BME280;18191;51.288;12.390;2023-04-10T21:51:51;48929.28;;;-144.47;53.34
31585;BME280;18191;51.288;12.390;2023-04-10T21:56:41;48923.31;;;-144.47;53.09
31585;BME280;18191;51.288;12.390;2023-04-10T22:01:32;48933.25;;;-144.47;52.38
31585;BME280;18191;51.288;12.390;2023-04-10T22:06:22;48961.09;;;-144.47;52.66
31585;BME280;18191;51.288;12.390;2023-04-10T22:11:14;48943.19;;;-144.47;52.51
31585;BME280;18191;51.288;12.390;2023-04-10T22:16:04;48957.13;;;-144.47;53.07
31585;BME280;18191;51.288;12.390;2023-04-10T22:20:55;48992.94;;;-144.47;52.38
31585;BME280;18191;51.288;12.390;2023-04-10T22:25:45;48955.13;;;-144.47;51.94
31585;BME280;18191;51.288;12.390;2023-04-10T22:30:35;49002.88;;;-144.47;51.63
31585;BME280;18191;51.288;12.390;2023-04-10T22:35:25;48943.19;;;-144.47;51.75
31585;BME280;18191;51.288;12.390;2023-04-10T22:40:16;48969.06;;;-144.47;51.11
31585;BME280;18191;51.288;12.390;2023-04-10T22:45:06;48975.03;;;-144.47;50.48
31585;BME280;18191;51.288;12.390;2023-04-10T22:49:56;48919.31;;;-144.47;50.68
31585;BME280;18191;51.288;12.390;2023-04-10T22:54:46;48953.13;;;-144.47;49.30
31585;BME280;18191;51.288;12.390;2023-04-10T22:59:36;48965.06;;;-144.47;49.54
31585;BME280;18191;51.288;12.390;2023-04-10T23:04:27;48957.13;;;-144.47;48.48
31585;BME280;18191;51.288;12.390;2023-04-10T23:09:17;48963.09;;;-144.47;48.73
31585;BME280;18191;51.288;12.390;2023-04-10T23:14:07;48979.00;;;-144.47;48.91
31585;BME280;18191;51.288;12.390;2023-04-10T23:18:57;48957.13;;;-144.47;48.25
31585;BME280;18191;51.288;12.390;2023-04-10T23:23:48;48984.97;;;-144.47;47.81
31585;BME280;18191;51.288;12.390;2023-04-10T23:28:38;48945.19;;;-144.47;47.45
31585;BME280;18191;51.288;12.390;2023-04-10T23:33:28;48981.00;;;-144.47;49.16
31585;BME280;18191;51.288;12.390;2023-04-10T23:38:20;48988.94;;;-144.47;49.68
31585;BME280;18191;51.288;12.390;2023-04-10T23:43:11;48949.16;;;-144.47;49.59
31585;BME280;18191;51.288;12.390;2023-04-10T23:48:01;48953.13;;;-144.47;49.99
31585;BME280;18191;51.288;12.390;2023-04-10T23:52:54;48959.09;;;-144.47;48.69
31585;BME280;18191;51.288;12.390;2023-04-10T23:57:49;48935.25;;;-144.47;49.55
